Time;durP1;ratioP1;P1;durP2;ratioP2;P2;SDS_P1;SDS_P2;PMS_P1;PMS_P2;Temp;Humidity;BMP_temperature;BMP_pressure;BME280_temperature;BME280_humidity;BME280_pressure;Samples;Min_cycle;Max_cycle;Signal;HPM_P1;HPM_P2
2021/03/28 00:01:22;;;;;;;10.10;5.75;;;6.30;99.90;;;;;;5056925;28;20045;-71
2021/03/28 00:03:55;;;;;;;11.68;6.07;;;6.30;99.90;;;;;;5057468;28;20044;-71
2021/03/28 00:06:28;;;;;;;;;;;6.40;99.90;;;;;;5070210;28;20049;-70
2021/03/28 00:09:10;;;;;;;8.13;6.15;;;6.40;99.90;;;;;;5054923;28;19974;-70
2021/03/28 00:12:02;;;;;;;7.93;6.25;;;6.40;99.90;;;;;;5062710;28;20407;-70
2021/03/28 00:14:45;;;;;;;11.85;6.00;;;6.40;99.90;;;;;;5051037;28;20045;-70
2021/03/28 00:17:18;;;;;;;13.13;5.68;;;6.40;99.90;;;;;;5065142;28;20057;-70
2021/03/28 00:19:52;;;;;;;9.70;6.32;;;6.40;99.90;;;;;;5051080;28;20049;-70
2021/03/28 00:23:00;;;;;;;11.77;7.70;;;6.40;99.90;;;;;;5065547;28;20150;-70
2021/03/28 00:25:39;;;;;;;9.45;6.38;;;6.40;99.90;;;;;;5056738;28;20392;-69
2021/03/28 00:28:20;;;;;;;13.63;7.20;;;6.50;99.90;;;;;;5054235;28;20098;-70
2021/03/28 00:30:49;;;;;;;14.57;7.15;;;6.50;99.90;;;;;;5052348;28;20044;-70
2021/03/28 00:33:22;;;;;;;9.93;6.50;;;6.50;99.90;;;;;;5050704;28;20053;-70
2021/03/28 00:35:57;;;;;;;11.35;6.28;;;6.60;99.90;;;;;;5051037;28;20131;-70
2021/03/28 00:38:39;;;;;;;8.23;6.03;;;6.60;99.90;;;;;;5050117;28;20522;-70
2021/03/28 00:41:13;;;;;;;12.55;6.70;;;6.50;99.90;;;;;;5050931;28;20037;-69
2021/03/28 00:44:06;;;;;;;10.35;6.07;;;6.60;99.90;;;;;;5050434;28;20484;-69
2021/03/28 00:46:51;;;;;;;10.25;6.03;;;6.60;99.90;;;;;;5060979;28;20463;-69
2021/03/28 00:49:27;;;;;;;9.10;6.03;;;6.60;99.90;;;;;;5056911;28;20123;-69
2021/03/28 00:51:58;;;;;;;10.77;6.55;;;6.60;99.90;;;;;;5056261;28;20040;-69
2021/03/28 00:54:42;;;;;;;8.30;6.38;;;6.80;99.90;;;;;;5058711;28;20063;-68
2021/03/28 00:57:37;;;;;;;12.32;6.35;;;6.70;99.90;;;;;;5049611;28;20057;-69
2021/03/28 01:00:37;;;;;;;11.23;5.90;;;6.80;99.90;;;;;;5056572;28;20123;-69
2021/03/28 01:03:10;;;;;;;8.48;5.68;;;6.80;99.90;;;;;;5046573;28;20059;-69
2021/03/28 01:05:56;;;;;;;10.20;6.28;;;6.80;99.90;;;;;;5059826;28;20459;-69
2021/03/28 01:08:28;;;;;;;15.55;6.95;;;6.80;99.90;;;;;;5051270;28;20048;-70
2021/03/28 01:11:42;;;;;;;8.70;5.70;;;6.80;99.90;;;;;;5060446;28;20060;-69
2021/03/28 01:14:14;;;;;;;11.77;6.60;;;6.80;99.90;;;;;;5051238;28;20059;-69
2021/03/28 01:17:12;;;;;;;14.82;6.82;;;6.80;99.90;;;;;;5054864;28;20056;-69
2021/03/28 01:20:07;;;;;;;13.73;6.55;;;6.80;99.90;;;;;;5046755;28;20060;-70
2021/03/28 01:22:42;;;;;;;11.02;6.22;;;6.80;99.90;;;;;;5062769;28;20059;-70
2021/03/28 01:25:18;;;;;;;8.85;6.20;;;6.80;99.90;;;;;;5051127;28;20052;-69
2021/03/28 01:27:58;;;;;;;13.13;6.70;;;6.80;99.90;;;;;;5056784;28;20410;-70
2021/03/28 01:30:40;;;;;;;9.52;6.63;;;6.80;99.90;;;;;;5067291;28;20056;-69
2021/03/28 01:33:16;;;;;;;10.30;6.40;;;6.80;99.90;;;;;;5045918;28;20403;-69
2021/03/28 01:36:11;;;;;;;11.52;6.10;;;6.80;99.90;;;;;;5056019;28;20037;-69
2021/03/28 01:38:42;;;;;;;11.75;6.72;;;6.80;99.90;;;;;;5051293;28;20124;-70
2021/03/28 01:41:16;;;;;;;11.68;6.40;;;6.80;99.90;;;;;;5053743;28;20045;-70
2021/03/28 01:44:16;;;;;;;14.30;6.95;;;6.80;99.90;;;;;;5054238;28;20052;-68
2021/03/28 01:47:07;;;;;;;17.05;7.47;;;6.70;99.90;;;;;;5045000;28;20055;-69
2021/03/28 01:50:07;;;;;;;9.75;6.35;;;6.80;99.90;;;;;;5048896;28;20041;-69
2021/03/28 01:53:03;;;;;;;10.90;6.55;;;6.70;99.90;;;;;;5039173;28;20050;-67
2021/03/28 01:55:49;;;;;;;13.13;6.63;;;6.70;99.90;;;;;;5048823;28;20041;-68
2021/03/28 01:58:23;;;;;;;10.85;6.63;;;6.80;99.90;;;;;;5047835;28;20048;-67
2021/03/28 02:01:20;;;;;;;10.45;6.40;;;6.70;99.90;;;;;;5043965;28;20468;-68
2021/03/28 02:04:45;;;;;;;12.82;6.50;;;6.80;99.90;;;;;;5073228;28;20051;-68
2021/03/28 02:07:24;;;;;;;11.63;6.55;;;6.70;99.90;;;;;;4980787;28;20063;-69
2021/03/28 02:10:14;;;;;;;11.90;7.93;;;6.70;99.90;;;;;;4967066;28;20090;-69
2021/03/28 02:12:55;;;;;;;12.13;6.97;;;6.70;99.90;;;;;;4970157;28;20378;-69
2021/03/28 02:15:32;;;;;;;14.33;7.27;;;6.70;99.90;;;;;;4979089;28;20039;-70
2021/03/28 02:18:20;;;;;;;10.73;6.47;;;6.70;99.90;;;;;;4965634;28;20508;-69
2021/03/28 02:20:54;;;;;;;10.40;6.78;;;6.70;99.90;;;;;;4978606;28;20046;-69
2021/03/28 02:23:50;;;;;;;13.25;7.10;;;6.70;99.90;;;;;;4964076;28;20503;-69
2021/03/28 02:26:46;;;;;;;12.65;6.30;;;6.70;99.90;;;;;;4962511;28;20533;-69
2021/03/28 02:29:28;;;;;;;13.18;6.97;;;6.60;99.90;;;;;;4978680;28;20045;-68
2021/03/28 02:32:32;;;;;;;12.50;7.05;;;6.70;99.90;;;;;;4965536;28;20054;-70
2021/03/28 02:35:10;;;;;;;12.43;6.97;;;6.60;99.90;;;;;;4969709;28;20043;-68
2021/03/28 02:37:43;;;;;;;14.75;7.05;;;6.60;99.90;;;;;;4997116;28;20053;-68
2021/03/28 02:40:13;;;;;;;11.52;6.65;;;6.60;99.90;;;;;;5050240;28;20067;-68
2021/03/28 02:43:29;;;;;;;11.80;7.07;;;6.60;99.90;;;;;;5039072;28;20088;-68
2021/03/28 02:46:26;;;;;;;11.07;6.57;;;6.60;99.90;;;;;;5050044;28;20049;-69
2021/03/28 02:49:24;;;;;;;13.77;6.63;;;6.50;99.90;;;;;;5051156;28;20045;-68
2021/03/28 02:52:14;;;;;;;13.73;6.32;;;6.50;99.90;;;;;;5051470;28;20510;-68
2021/03/28 02:55:18;;;;;;;11.48;7.20;;;6.50;99.90;;;;;;5054991;28;20049;-68
2021/03/28 02:58:02;;;;;;;16.45;6.78;;;6.40;99.90;;;;;;5046776;28;20053;-69
2021/03/28 03:01:06;;;;;;;13.43;6.75;;;6.40;99.90;;;;;;5056108;28;20056;-68
2021/03/28 03:03:57;;;;;;;13.50;7.82;;;6.40;99.90;;;;;;5041948;28;20168;-68
2021/03/28 03:06:56;;;;;;;13.30;6.90;;;6.30;99.90;;;;;;5046765;28;20056;-68
2021/03/28 03:09:56;;;;;;;11.40;6.47;;;6.30;99.90;;;;;;5044317;28;20098;-68
2021/03/28 03:12:58;;;;;;;13.57;6.93;;;6.40;99.90;;;;;;5050782;28;20137;-69
2021/03/28 03:15:36;;;;;;;9.18;6.25;;;6.30;99.90;;;;;;5051357;28;20099;-68
2021/03/28 03:18:25;;;;;;;11.40;6.15;;;6.20;99.90;;;;;;5046523;28;20053;-69
2021/03/28 03:21:16;;;;;;;10.93;6.10;;;6.20;99.90;;;;;;5054050;28;20077;-69
2021/03/28 03:23:51;;;;;;;8.65;5.97;;;6.20;99.90;;;;;;5054737;28;20593;-68
2021/03/28 03:26:42;;;;;;;10.68;6.15;;;6.20;99.90;;;;;;5044171;28;20045;-68
2021/03/28 03:29:09;;;;;;;11.27;5.93;;;6.20;99.90;;;;;;5055782;28;20040;-68
2021/03/28 03:31:38;;;;;;;12.55;6.28;;;6.40;99.90;;;;;;5048383;28;20496;-68
2021/03/28 03:34:28;;;;;;;12.07;6.18;;;6.40;99.90;;;;;;5046368;28;20510;-68
2021/03/28 03:37:04;;;;;;;11.10;5.85;;;6.50;99.90;;;;;;5050938;28;20053;-68
2021/03/28 03:39:45;;;;;;;18.30;6.30;;;6.40;99.90;;;;;;5069640;28;20052;-68
2021/03/28 03:42:21;;;;;;;11.43;6.15;;;6.40;99.90;;;;;;5071510;28;20056;-68
2021/03/28 03:45:21;;;;;;;13.73;5.65;;;6.50;99.90;;;;;;5065017;28;20045;-68
2021/03/28 03:48:09;;;;;;;8.15;5.72;;;6.40;99.90;;;;;;5070764;28;20495;-68
2021/03/28 03:51:00;;;;;;;16.33;6.43;;;6.50;99.90;;;;;;5046939;28;20037;-69
2021/03/28 03:54:02;;;;;;;9.80;6.07;;;6.40;99.90;;;;;;5052559;28;20037;-69
2021/03/28 03:56:50;;;;;;;9.73;5.65;;;6.40;99.90;;;;;;5022779;28;20053;-69
2021/03/28 03:59:50;;;;;;;8.77;5.75;;;6.40;99.90;;;;;;5072053;28;20052;-68
2021/03/28 04:02:43;;;;;;;10.95;6.40;;;6.30;99.90;;;;;;5051553;28;20045;-69
2021/03/28 04:05:16;;;;;;;10.73;5.70;;;6.30;99.90;;;;;;5054790;28;20491;-68
2021/03/28 04:08:20;;;;;;;12.90;7.00;;;6.30;99.90;;;;;;5054297;28;20045;-69
2021/03/28 04:11:00;;;;;;;15.25;5.60;;;6.30;99.90;;;;;;5058988;28;20047;-69
2021/03/28 04:13:41;;;;;;;12.40;5.90;;;6.30;99.90;;;;;;5064334;28;20041;-69
2021/03/28 04:16:32;;;;;;;11.17;5.97;;;6.30;99.90;;;;;;5062142;28;20048;-69
2021/03/28 04:19:32;;;;;;;10.55;6.00;;;6.30;99.90;;;;;;5060075;28;20144;-69
2021/03/28 04:22:29;;;;;;;11.68;6.07;;;6.30;99.90;;;;;;5052895;28;20041;-69
2021/03/28 04:25:25;;;;;;;10.13;6.18;;;6.30;99.90;;;;;;5052370;28;20056;-69
2021/03/28 04:28:03;;;;;;;10.98;5.60;;;6.30;99.90;;;;;;5048716;28;20052;-68
2021/03/28 04:30:57;;;;;;;9.88;5.75;;;6.40;99.90;;;;;;5055815;28;20040;-69
2021/03/28 04:33:32;;;;;;;11.70;6.10;;;6.30;99.90;;;;;;5038888;28;20490;-69
2021/03/28 04:36:19;;;;;;;12.57;5.63;;;6.30;99.90;;;;;;5051811;28;20147;-69
2021/03/28 04:39:02;;;;;;;12.13;6.20;;;6.20;99.90;;;;;;5053070;28;20048;-68
2021/03/28 04:42:06;;;;;;;13.50;5.90;;;6.30;99.90;;;;;;5051264;28;20060;-70
2021/03/28 04:45:09;;;;;;;11.13;5.80;;;6.20;99.90;;;;;;5052780;28;20403;-69
2021/03/28 04:48:07;;;;;;;11.38;5.90;;;6.20;99.90;;;;;;5050080;28;20052;-69
2021/03/28 04:50:39;;;;;;;14.50;6.22;;;6.20;99.90;;;;;;5055594;28;20070;-69
2021/03/28 04:53:34;;;;;;;7.88;5.63;;;6.20;99.90;;;;;;5058263;28;20073;-70
2021/03/28 04:56:37;;;;;;;9.25;5.53;;;6.20;99.90;;;;;;5056648;28;20112;-70
2021/03/28 04:59:13;;;;;;;11.13;6.30;;;6.20;99.90;;;;;;5051361;28;20087;-70
2021/03/28 05:02:04;;;;;;;11.68;5.82;;;6.20;99.90;;;;;;5054980;28;20056;-69
2021/03/28 05:04:49;;;;;;;13.07;6.13;;;6.30;99.90;;;;;;5046295;28;20065;-69
2021/03/28 05:07:27;;;;;;;9.82;6.25;;;6.20;99.90;;;;;;5051942;28;20059;-69
2021/03/28 05:10:06;;;;;;;9.93;5.90;;;6.30;99.90;;;;;;5051495;28;20499;-68
2021/03/28 05:13:02;;;;;;;9.82;6.00;;;6.30;99.90;;;;;;5054388;28;20041;-68
2021/03/28 05:15:47;;;;;;;9.80;5.53;;;6.30;99.90;;;;;;5057396;28;20073;-70
2021/03/28 05:18:52;;;;;;;10.35;6.35;;;6.30;99.90;;;;;;5046094;28;20059;-69
2021/03/28 05:21:30;;;;;;;12.40;6.30;;;6.30;99.90;;;;;;5038885;28;20056;-69
2021/03/28 05:24:00;;;;;;;14.02;6.32;;;6.30;99.90;;;;;;5065363;28;20052;-68
2021/03/28 05:26:38;;;;;;;16.10;6.63;;;6.40;99.90;;;;;;5063754;28;20910;-68
2021/03/28 05:29:15;;;;;;;10.77;6.68;;;6.40;99.90;;;;;;5052894;28;20120;-68
2021/03/28 05:32:06;;;;;;;11.80;5.95;;;6.50;99.90;;;;;;5051186;28;20132;-68
2021/03/28 05:34:48;;;;;;;12.30;6.63;;;6.50;99.90;;;;;;5053059;28;20060;-70
2021/03/28 05:37:30;;;;;;;12.45;6.45;;;6.60;99.90;;;;;;5065529;28;20086;-69
2021/03/28 05:40:09;;;;;;;12.18;6.22;;;6.60;99.90;;;;;;5065589;28;20056;-69
2021/03/28 05:42:54;;;;;;;10.30;6.00;;;6.70;99.90;;;;;;5065422;28;20044;-70
2021/03/28 05:45:21;;;;;;;10.15;5.90;;;6.80;99.90;;;;;;5058998;28;20521;-69
2021/03/28 05:47:50;;;;;;;11.30;6.38;;;6.90;99.90;;;;;;5054660;28;20056;-69
2021/03/28 05:50:49;;;;;;;13.75;6.43;;;7.00;99.90;;;;;;5053057;28;20048;-68
2021/03/28 05:53:31;;;;;;;11.68;6.85;;;7.00;99.90;;;;;;5053737;28;20045;-69
2021/03/28 05:56:22;;;;;;;12.37;6.23;;;7.00;99.90;;;;;;5053122;28;20067;-70
2021/03/28 05:59:19;;;;;;;12.73;6.50;;;7.00;99.90;;;;;;5039378;28;20048;-68
2021/03/28 06:01:51;;;;;;;10.90;6.13;;;7.00;99.90;;;;;;5053674;28;20470;-68
2021/03/28 06:04:36;;;;;;;11.50;6.25;;;6.90;99.90;;;;;;5051598;28;20055;-69
2021/03/28 06:07:21;;;;;;;12.32;6.25;;;6.90;99.90;;;;;;5059011;28;20040;-69
2021/03/28 06:09:53;;;;;;;12.80;6.60;;;6.90;99.90;;;;;;5067677;28;20063;-69
2021/03/28 06:12:42;;;;;;;9.35;5.80;;;6.90;99.90;;;;;;5054219;28;20048;-69
2021/03/28 06:15:30;;;;;;;10.18;6.03;;;7.00;99.90;;;;;;5051401;28;20049;-68
2021/03/28 06:18:27;;;;;;;8.80;5.90;;;7.10;99.90;;;;;;5052089;28;20502;-69
2021/03/28 06:21:05;;;;;;;18.92;6.57;;;7.10;99.90;;;;;;5070108;28;20105;-68
2021/03/28 06:23:56;;;;;;;8.88;5.68;;;7.30;99.90;;;;;;5047667;28;20450;-68
2021/03/28 06:26:44;;;;;;;11.60;6.32;;;7.30;99.90;;;;;;5043421;28;20053;-69
2021/03/28 06:29:54;;;;;;;13.85;7.15;;;7.50;99.90;;;;;;5043518;28;20051;-69
2021/03/28 06:32:44;;;;;;;10.35;6.03;;;7.60;99.90;;;;;;4970179;28;20062;-69
2021/03/28 06:35:31;;;;;;;12.23;7.43;;;7.70;99.90;;;;;;4972160;28;20054;-70
2021/03/28 06:38:24;;;;;;;9.45;6.05;;;7.80;99.90;;;;;;4969097;28;20138;-69
2021/03/28 06:41:10;;;;;;;10.40;6.07;;;8.00;99.90;;;;;;4973471;28;20509;-70
2021/03/28 06:44:24;;;;;;;11.40;6.57;;;8.00;99.90;;;;;;4973038;28;20504;-69
2021/03/28 06:46:51;;;;;;;9.73;6.20;;;8.10;99.90;;;;;;4974579;28;20043;-70
2021/03/28 06:49:54;;;;;;;10.65;6.30;;;8.20;99.90;;;;;;4979745;28;20482;-69
2021/03/28 06:52:49;;;;;;;10.15;6.60;;;8.30;99.90;;;;;;4964710;28;20457;-69
2021/03/28 06:55:39;;;;;;;10.45;6.18;;;8.40;99.90;;;;;;4968205;28;20052;-69
2021/03/28 06:58:08;;;;;;;11.80;6.30;;;8.40;99.90;;;;;;4984113;28;20496;-69
2021/03/28 07:00:40;;;;;;;11.32;6.63;;;8.50;99.90;;;;;;4979812;28;20068;-70
2021/03/28 07:03:35;;;;;;;10.57;6.40;;;8.50;99.90;;;;;;4978107;28;20050;-68
2021/03/28 07:06:32;;;;;;;8.75;6.20;;;8.60;99.90;;;;;;4989926;28;20416;-70
2021/03/28 07:09:33;;;;;;;9.55;6.35;;;8.70;99.90;;;;;;4998677;28;20049;-69
2021/03/28 07:12:28;;;;;;;12.75;6.78;;;8.70;99.90;;;;;;5049115;28;20076;-70
2021/03/28 07:15:16;;;;;;;9.82;6.60;;;8.80;99.90;;;;;;5067558;28;20052;-70
2021/03/28 07:18:07;;;;;;;12.52;6.68;;;8.70;99.90;;;;;;5044490;28;20045;-70
2021/03/28 07:20:53;;;;;;;8.65;6.18;;;8.70;99.90;;;;;;5064629;28;20055;-69
2021/03/28 07:23:53;;;;;;;10.07;7.00;;;8.60;99.90;;;;;;5064812;28;20053;-70
2021/03/28 07:26:39;;;;;;;9.02;7.40;;;8.70;99.90;;;;;;5054638;28;20056;-69
2021/03/28 07:29:46;;;;;;;10.30;7.80;;;8.60;99.90;;;;;;5058036;28;20048;-70
2021/03/28 07:32:44;;;;;;;9.90;6.38;;;8.60;99.90;;;;;;5050588;28;20107;-72
2021/03/28 07:35:48;;;;;;;14.00;7.55;;;8.70;99.90;;;;;;5031359;28;20049;-70
2021/03/28 07:38:35;;;;;;;11.98;6.95;;;8.80;99.90;;;;;;5058340;28;20502;-68
2021/03/28 07:41:24;;;;;;;11.57;6.93;;;8.90;99.90;;;;;;5053211;28;20114;-70
2021/03/28 07:44:28;;;;;;;12.68;7.32;;;9.00;99.90;;;;;;5050325;28;20568;-70
2021/03/28 07:47:10;;;;;;;9.27;6.82;;;9.20;99.90;;;;;;5058401;28;20056;-69
2021/03/28 07:49:39;;;;;;;12.05;7.03;;;9.20;99.90;;;;;;5053618;28;20053;-69
2021/03/28 07:52:46;;;;;;;10.32;7.10;;;9.10;99.90;;;;;;5037831;28;20064;-69
2021/03/28 07:55:18;;;;;;;15.63;8.73;;;9.10;99.90;;;;;;5052689;28;20144;-69
2021/03/28 07:58:10;;;;;;;15.05;9.13;;;9.20;99.90;;;;;;5061997;28;20104;-70
2021/03/28 08:00:39;;;;;;;9.55;7.10;;;9.30;99.90;;;;;;5054422;28;20080;-69
2021/03/28 08:03:06;;;;;;;9.93;7.22;;;9.40;99.90;;;;;;5052860;28;20060;-69
2021/03/28 08:05:52;;;;;;;10.68;7.18;;;9.50;99.90;;;;;;5065872;28;20055;-70
2021/03/28 08:08:25;;;;;;;18.02;9.63;;;9.60;99.90;;;;;;5038374;28;20049;-70
2021/03/28 08:11:03;;;;;;;;;;;9.70;99.90;;;;;;5066330;28;20074;-70
2021/03/28 08:14:01;;;;;;;15.05;9.07;;;9.90;99.90;;;;;;5056014;28;20009;-69
2021/03/28 08:16:48;;;;;;;16.45;8.60;;;10.00;99.90;;;;;;5062524;28;20048;-69
2021/03/28 08:19:45;;;;;;;10.60;7.80;;;10.10;99.90;;;;;;5052219;28;20048;-70
2021/03/28 08:22:43;;;;;;;11.90;7.88;;;10.40;99.90;;;;;;5057954;28;20053;-71
2021/03/28 08:25:39;;;;;;;12.73;7.38;;;10.60;99.90;;;;;;5051925;28;20067;-70
2021/03/28 08:28:23;;;;;;;16.33;7.85;;;10.80;99.90;;;;;;5055644;28;20044;-69
2021/03/28 08:31:11;;;;;;;11.45;7.60;;;10.50;99.90;;;;;;5057063;28;20086;-69
2021/03/28 08:34:32;;;;;;;10.02;7.53;;;10.30;99.90;;;;;;5052697;28;20155;-69
2021/03/28 08:36:59;;;;;;;12.93;8.18;;;10.20;99.90;;;;;;4999287;28;20060;-70
2021/03/28 08:39:56;;;;;;;13.23;7.75;;;10.30;99.90;;;;;;5013161;28;20049;-69
2021/03/28 08:42:31;;;;;;;11.32;7.53;;;10.20;99.90;;;;;;5007173;28;20046;-69
2021/03/28 08:45:06;;;;;;;14.40;7.85;;;10.00;99.90;;;;;;5006058;28;20056;-70
2021/03/28 08:47:57;;;;;;;11.00;7.40;;;9.90;99.90;;;;;;5003782;28;20137;-70
2021/03/28 08:50:45;;;;;;;12.38;7.35;;;9.90;99.90;;;;;;5004307;28;20432;-69
2021/03/28 08:53:46;;;;;;;13.13;7.20;;;9.80;99.90;;;;;;5033247;28;20053;-69
2021/03/28 08:56:31;;;;;;;11.02;7.00;;;10.00;99.90;;;;;;5010483;28;20050;-70
2021/03/28 08:59:04;;;;;;;9.63;7.30;;;10.20;99.90;;;;;;5004325;28;20521;-68
2021/03/28 09:01:39;;;;;;;;;;;10.30;99.90;;;;;;5013400;28;20049;-72
2021/03/28 09:04:23;;;;;;;14.65;8.05;;;10.50;99.90;;;;;;5012123;28;20024;-71
2021/03/28 09:07:00;;;;;;;11.10;7.22;;;10.80;99.90;;;;;;5007074;28;20057;-71
2021/03/28 09:09:53;;;;;;;14.02;7.63;;;11.20;99.90;;;;;;5007345;28;20515;-69
2021/03/28 09:12:34;;;;;;;9.63;7.38;;;11.40;99.90;;;;;;5050150;28;20051;-70
2021/03/28 09:15:25;;;;;;;16.80;7.15;;;11.50;99.90;;;;;;5052458;28;20048;-70
2021/03/28 09:18:03;;;;;;;14.95;7.82;;;11.80;99.90;;;;;;5054338;28;20048;-69
2021/03/28 09:20:53;;;;;;;20.65;8.38;;;11.80;99.90;;;;;;5059352;28;20053;-67
2021/03/28 09:23:58;;;;;;;13.75;7.80;;;12.60;99.90;;;;;;5057194;28;20056;-67
2021/03/28 09:26:46;;;;;;;10.95;7.90;;;13.10;99.90;;;;;;5055166;28;20059;-69
2021/03/28 09:29:33;;;;;;;12.88;8.00;;;13.30;99.90;;;;;;5059512;28;20036;-66
2021/03/28 09:32:29;;;;;;;12.13;8.45;;;13.20;99.90;;;;;;5049541;28;20876;-67
2021/03/28 09:35:10;;;;;;;11.15;8.63;;;13.20;99.90;;;;;;5051843;28;20037;-68
2021/03/28 09:37:59;;;;;;;11.23;8.90;;;13.30;99.90;;;;;;5050288;28;20061;-68
2021/03/28 09:40:58;;;;;;;11.70;8.40;;;13.40;99.90;;;;;;5051099;28;20144;-68
2021/03/28 09:43:45;;;;;;;13.27;8.82;;;13.40;99.90;;;;;;5056973;28;20048;-67
2021/03/28 09:46:33;;;;;;;10.73;8.35;;;13.30;99.90;;;;;;5051818;28;20040;-67
2021/03/28 09:49:27;;;;;;;12.60;8.95;;;13.30;99.90;;;;;;5049977;28;20383;-67
2021/03/28 09:52:15;;;;;;;11.70;8.10;;;13.50;99.90;;;;;;5048209;28;20049;-69
2021/03/28 09:55:09;;;;;;;10.00;8.55;;;13.80;99.90;;;;;;5055028;28;20665;-68
2021/03/28 09:58:02;;;;;;;13.23;9.00;;;13.90;99.90;;;;;;5055085;28;20048;-66
2021/03/28 10:00:35;;;;;;;10.68;7.60;;;13.80;99.90;;;;;;5064765;28;20048;-67
2021/03/28 10:03:13;;;;;;;14.45;8.52;;;14.10;99.90;;;;;;5054179;28;20124;-67
2021/03/28 10:05:41;;;;;;;10.15;7.60;;;14.10;99.90;;;;;;5050610;28;20127;-70
2021/03/28 10:08:17;;;;;;;9.52;7.38;;;14.20;99.90;;;;;;5066578;28;20049;-71
2021/03/28 10:10:52;;;;;;;7.90;7.10;;;13.60;99.90;;;;;;5045610;28;20041;-70
2021/03/28 10:13:25;;;;;;;9.30;7.25;;;13.50;99.90;;;;;;5050395;28;20057;-69
2021/03/28 10:16:11;;;;;;;11.80;7.55;;;13.50;99.90;;;;;;5057953;28;20076;-71
2021/03/28 10:19:02;;;;;;;15.65;7.68;;;13.60;99.90;;;;;;5064936;28;20048;-70
2021/03/28 10:22:06;;;;;;;9.63;7.30;;;13.70;99.90;;;;;;5062362;28;20068;-70
2021/03/28 10:25:05;;;;;;;9.60;6.70;;;13.40;99.90;;;;;;5054653;28;20441;-68
2021/03/28 10:28:09;;;;;;;10.50;7.65;;;13.20;99.90;;;;;;5055278;28;20103;-69
2021/03/28 10:31:22;;;;;;;12.20;7.85;;;13.10;99.90;;;;;;5061900;28;20084;-70
2021/03/28 10:33:51;;;;;;;10.70;7.60;;;13.10;99.90;;;;;;5054811;28;20399;-69
2021/03/28 10:36:50;;;;;;;10.05;7.22;;;13.20;99.90;;;;;;5057817;28;20084;-70
2021/03/28 10:39:37;;;;;;;13.02;7.57;;;13.40;99.90;;;;;;5048106;28;20049;-69
2021/03/28 10:42:25;;;;;;;15.65;8.20;;;13.90;99.90;;;;;;5057382;28;20094;-70
2021/03/28 10:45:30;;;;;;;9.40;7.53;;;14.00;99.90;;;;;;5059852;28;20056;-68
2021/03/28 10:48:12;;;;;;;10.90;8.10;;;14.30;99.90;;;;;;5042138;28;20051;-67
2021/03/28 10:50:46;;;;;;;11.90;7.60;;;14.40;99.90;;;;;;5051839;28;20135;-69
2021/03/28 10:53:21;;;;;;;12.45;8.20;;;14.80;99.90;;;;;;5060206;28;20056;-68
2021/03/28 10:56:26;;;;;;;10.00;7.75;;;14.90;99.30;;;;;;5060873;28;20072;-68
2021/03/28 10:59:22;;;;;;;9.30;7.75;;;14.60;99.10;;;;;;5058748;28;20110;-68
2021/03/28 11:02:24;;;;;;;10.88;8.32;;;14.40;98.80;;;;;;5043761;28;20513;-68
2021/03/28 11:05:15;;;;;;;10.63;7.88;;;14.10;99.00;;;;;;5061386;28;20384;-71
2021/03/28 11:07:48;;;;;;;9.50;7.47;;;14.20;97.60;;;;;;5060521;28;20037;-70
2021/03/28 11:11:00;;;;;;;9.90;7.28;;;14.60;97.40;;;;;;5068253;28;20092;-71
2021/03/28 11:13:47;;;;;;;9.57;7.00;;;14.90;96.10;;;;;;5072688;28;20053;-72
2021/03/28 11:16:51;;;;;;;10.57;7.97;;;14.90;95.70;;;;;;5073006;28;20044;-69
2021/03/28 11:19:55;;;;;;;7.75;6.97;;;14.30;96.00;;;;;;5061730;28;20095;-68
2021/03/28 11:22:47;;;;;;;10.10;7.32;;;14.40;96.80;;;;;;5054771;28;20102;-68
2021/03/28 11:25:21;;;;;;;8.50;7.60;;;14.40;96.00;;;;;;5055347;28;20667;-70
2021/03/28 11:27:54;;;;;;;8.80;7.38;;;14.80;95.30;;;;;;5057628;28;20041;-69
2021/03/28 11:30:32;;;;;;;9.57;7.60;;;15.10;95.00;;;;;;5052349;28;20080;-68
2021/03/28 11:33:13;;;;;;;10.30;7.07;;;15.10;94.30;;;;;;5050001;28;20068;-68
2021/03/28 11:35:55;;;;;;;8.85;7.53;;;15.60;93.90;;;;;;5043830;28;20037;-70
2021/03/28 11:38:22;;;;;;;8.55;7.65;;;15.50;93.20;;;;;;5045410;28;20506;-70
2021/03/28 11:41:06;;;;;;;10.18;7.60;;;15.50;92.50;;;;;;5062288;28;20053;-67
2021/03/28 11:43:35;;;;;;;7.97;7.10;;;15.40;92.80;;;;;;5030794;28;20053;-68
2021/03/28 11:46:05;;;;;;;8.98;6.75;;;16.10;92.30;;;;;;4998988;28;20050;-68
2021/03/28 11:48:44;;;;;;;8.38;7.32;;;16.10;91.00;;;;;;4999716;28;108472;-69
2021/03/28 11:52:30;;;;;;;9.18;7.63;;;16.10;90.50;;;;;;5041239;27;102836;-69
2021/03/28 11:55:11;;;;;;;8.02;7.05;;;17.00;90.50;;;;;;5047191;28;20045;-71
2021/03/28 11:57:39;;;;;;;10.38;6.95;;;17.30;87.30;;;;;;5043295;28;20123;-69
2021/03/28 12:00:45;;;;;;;10.02;7.03;;;17.50;86.30;;;;;;5047568;28;20053;-68
2021/03/28 12:03:34;;;;;;;9.27;7.20;;;17.40;84.80;;;;;;5029487;28;20041;-67
2021/03/28 12:06:17;;;;;;;8.55;7.43;;;16.40;85.80;;;;;;5047708;28;20468;-68
2021/03/28 12:08:44;;;;;;;;;;;16.10;87.50;;;;;;5045851;28;20045;-70
2021/03/28 12:11:38;;;;;;;7.78;6.72;;;17.00;86.60;;;;;;5046096;28;19921;-68
2021/03/28 12:14:14;;;;;;;8.77;7.97;;;17.30;84.80;;;;;;5049145;28;20069;-69
2021/03/28 12:17:03;;;;;;;8.20;7.40;;;17.50;84.90;;;;;;5047564;28;20057;-68
2021/03/28 12:19:48;;;;;;;8.35;7.40;;;17.90;83.60;;;;;;5079207;28;20045;-68
2021/03/28 12:22:26;;;;;;;10.38;7.60;;;17.80;82.70;;;;;;5046963;28;20049;-68
2021/03/28 12:25:28;;;;;;;9.00;7.35;;;17.40;82.10;;;;;;5045488;28;20091;-69
2021/03/28 12:27:55;;;;;;;11.48;7.78;;;17.40;82.30;;;;;;5048931;28;20056;-67
2021/03/28 12:30:24;;;;;;;9.38;7.93;;;17.80;81.80;;;;;;5048017;28;20049;-70
2021/03/28 12:33:12;;;;;;;8.85;7.82;;;18.10;80.20;;;;;;5032771;28;20080;-69
2021/03/28 12:35:39;;;;;;;9.27;7.47;;;17.90;79.60;;;;;;5048058;28;20045;-70
2021/03/28 12:38:27;;;;;;;10.60;8.00;;;17.80;78.90;;;;;;5047514;28;20049;-69
2021/03/28 12:41:15;;;;;;;8.57;7.70;;;17.70;79.80;;;;;;5030775;28;20110;-69
2021/03/28 12:43:55;;;;;;;12.23;8.45;;;18.70;78.70;;;;;;5044286;28;20037;-69
2021/03/28 12:46:31;;;;;;;8.38;7.68;;;18.60;77.60;;;;;;5027436;28;20077;-69
2021/03/28 12:49:31;;;;;;;10.82;8.60;;;18.90;76.70;;;;;;5037539;28;20053;-67
2021/03/28 12:52:04;;;;;;;9.27;7.60;;;18.90;75.60;;;;;;5042404;28;20099;-69
2021/03/28 12:54:54;;;;;;;8.85;8.05;;;18.90;76.20;;;;;;5046340;28;20103;-68
2021/03/28 12:57:39;;;;;;;9.35;7.63;;;19.30;74.50;;;;;;5040510;28;20053;-68
2021/03/28 13:00:27;;;;;;;8.00;7.30;;;19.30;74.70;;;;;;5044650;28;20572;-70
2021/03/28 13:02:57;;;;;;;11.90;8.38;;;19.40;73.70;;;;;;5016549;28;20669;-69
2021/03/28 13:05:34;;;;;;;9.23;8.32;;;19.80;73.40;;;;;;5030441;28;20042;-68
2021/03/28 13:08:07;;;;;;;9.15;8.10;;;20.30;71.40;;;;;;5032126;28;20080;-70
2021/03/28 13:10:39;;;;;;;10.23;8.43;;;20.60;70.40;;;;;;5033251;28;20049;-71
2021/03/28 13:13:15;;;;;;;;;;;21.90;68.50;;;;;;5023231;28;20073;-70
2021/03/28 13:15:47;;;;;;;10.07;8.50;;;22.90;66.70;;;;;;5022647;28;20356;-69
2021/03/28 13:18:19;;;;;;;9.23;8.15;;;23.90;64.40;;;;;;5031930;28;20136;-69
2021/03/28 13:20:55;;;;;;;9.70;8.60;;;24.80;61.90;;;;;;5028928;28;20475;-69
2021/03/28 13:23:35;;;;;;;9.10;8.20;;;25.30;59.30;;;;;;5029341;28;20472;-69
2021/03/28 13:26:18;;;;;;;8.65;7.82;;;25.40;59.00;;;;;;5032477;28;20045;-70
2021/03/28 13:29:00;;;;;;;9.18;8.20;;;25.70;58.40;;;;;;5032653;28;20504;-71
2021/03/28 13:31:27;;;;;;;;;;;25.90;57.20;;;;;;5029799;28;20050;-69
2021/03/28 13:34:04;;;;;;;8.43;7.60;;;27.00;56.30;;;;;;5020804;28;19944;-69
2021/03/28 13:36:44;;;;;;;8.40;7.60;;;28.20;55.20;;;;;;5014955;28;20112;-69
2021/03/28 13:39:18;;;;;;;8.95;8.05;;;29.60;53.20;;;;;;5024918;28;20092;-70
2021/03/28 13:42:06;;;;;;;8.50;7.80;;;30.30;51.60;;;;;;5047446;28;20524;-69
2021/03/28 13:44:49;;;;;;;;;;;29.60;51.10;;;;;;5025798;28;20053;-70
2021/03/28 13:47:16;;;;;;;8.75;7.93;;;30.90;50.00;;;;;;5028093;28;20107;-69
2021/03/28 13:49:48;;;;;;;8.55;7.28;;;30.80;49.30;;;;;;5037860;28;20041;-70
2021/03/28 13:52:22;;;;;;;8.07;7.32;;;30.30;49.00;;;;;;5027194;28;20132;-70
2021/03/28 13:55:33;;;;;;;8.20;7.50;;;30.00;49.00;;;;;;5031587;28;20132;-71
2021/03/28 13:58:27;;;;;;;8.30;7.60;;;30.70;47.90;;;;;;5027897;28;20128;-70
2021/03/28 14:01:06;;;;;;;8.32;7.63;;;30.10;48.40;;;;;;5022808;28;20073;-70
2021/03/28 14:03:36;;;;;;;8.70;7.95;;;30.10;48.20;;;;;;5029546;28;20104;-70
2021/03/28 14:06:31;;;;;;;9.27;8.38;;;30.30;48.20;;;;;;5031508;28;20128;-70
2021/03/28 14:09:09;;;;;;;9.27;8.48;;;29.80;48.20;;;;;;5016320;28;20041;-70
2021/03/28 14:11:48;;;;;;;9.18;8.38;;;31.50;47.30;;;;;;5028976;28;20041;-67
2021/03/28 14:14:38;;;;;;;9.15;8.25;;;31.60;46.90;;;;;;5019207;28;20046;-70
2021/03/28 14:17:24;;;;;;;9.23;8.27;;;31.30;46.30;;;;;;5027829;28;20042;-70
2021/03/28 14:20:23;;;;;;;9.10;8.20;;;30.50;46.90;;;;;;5028880;28;20484;-70
2021/03/28 14:23:16;;;;;;;8.95;8.20;;;30.00;46.90;;;;;;5024135;28;20050;-68
2021/03/28 14:25:46;;;;;;;9.30;7.97;;;30.60;47.20;;;;;;5025418;28;20091;-70